Chicopee, MA (01020)

3:30 PM EDT on August 28, 2015 (GMT -0400)
Nearby Szot Park | | Change Station
CLOSE
Current Station
Personal Weather Station
Location: Chicopee, MA
Elevation: 167 ft
Nearby Weather Stations

Elev 167 ft 42.15 °N, 72.58 °W | Updated 29 seconds ago

Partly Cloudy
Partly Cloudy
77.5 °F
Feels Like 79 °F
N
1.0
Wind Variable Wind from West
Gusts 2.0 mph

Today
High -- | Low -- °F
--% Chance of Precip.
Yesterday
High -- | Low -- °F
Precip. -- in
6:11 AM 7:31 PM
Waxing Gibbous, 99% visible
Pressure 30.15 in
Visibility 10.0 miles
Clouds Few 6000 ft
Heat Index 79 °F
Dew Point 57 °F
Humidity 49%
Rainfall 0.00 in
Snow Depth Not available.
UV 7 out of 12
Pollen 9.70 out of 12
Air Quality Not available.
Flu Activity Not available.
METAR KCEF 281858Z AUTO VRB03KT 10SM FEW060 26/12 A3013 RMK AO2 SLP208 T02580118
Pressure 30.15 in
Visibility 10.0 miles
Clouds Few 6000 ft
Heat Index 79 °F
Dew Point 57 °F
Humidity 49%
Rainfall 0.00 in
Snow Depth Not available.
UV 7 out of 12
Pollen 9.70 out of 12
Air Quality Not available.
Flu Activity Not available.
METAR KCEF 281858Z AUTO VRB03KT 10SM FEW060 26/12 A3013 RMK AO2 SLP208 T02580118

10-Day Weather Forecast

×

Almanac

Astronomy

Aug. 28, 2015 Rise Set
Actual Time
Civil Twilight
Nautical Twilight
Astronomical Twilight
Moon
Length of Visible Light
Length of Day
Tomorrow will be .
, % of the Moon is Illuminated

Today's Extremes

State Highs State Lows

Community

WunderPhotos

Upload Photos

1,850,464 photos uploaded!

WunderBlogs® & News

Nearby

Air Quality

  Air Quality AQ Index Pollutant
Not available.

Snow Depth

Station Depth Elevation

Earthquake Activity

City Distance Mag. Time & Date
Minimum magnitude displayed is 2.5.

Coastal Water Temperatures

Place Temperature

Stations

Nearby Weather Stations

Station Location Temp. Windchill Dew Point Humidity Wind Precip. Elev Updated Type